Time,TemperatureF,DewpointF,PressureIn,WindDirection,WindDirectionDegrees,WindSpeedMPH,WindSpeedGustMPH,Humidity,HourlyPrecipIn,Conditions,Clouds,dailyrainin,SolarRadiationWatts/m^2,SoftwareType,DateUTC
2013-03-10 00:02:00,34.2,30.4,29.59,NW,322,21.0,26.0,86,0.00,,,0.01,0.0,meteohub,2013-03-10 06:02:00,
2013-03-10 00:07:00,34.2,30.2,29.60,NW,325,25.0,31.0,85,0.00,,,0.00,0.0,meteohub,2013-03-10 06:07:00,
2013-03-10 00:12:00,34.2,30.2,29.60,NW,319,28.0,34.0,85,0.00,,,0.00,0.0,meteohub,2013-03-10 06:12:00,
2013-03-10 00:17:00,34.2,30.7,29.60,NNW,327,30.0,36.0,87,0.00,,,0.00,0.0,meteohub,2013-03-10 06:17:00,
2013-03-10 00:22:00,34.2,30.7,29.61,NW,324,21.0,37.0,87,0.00,,,0.00,0.0,meteohub,2013-03-10 06:22:00,
2013-03-10 00:27:00,34.0,30.7,29.61,NNW,330,28.0,37.0,88,0.00,,,0.00,0.0,meteohub,2013-03-10 06:27:00,
2013-03-10 00:32:00,34.0,31.1,29.62,NNW,337,25.0,37.0,89,0.00,,,0.00,0.0,meteohub,2013-03-10 06:32:00,
2013-03-10 00:37:00,33.6,30.9,29.62,NNW,337,24.0,37.0,90,0.00,,,0.00,0.0,meteohub,2013-03-10 06:37:00,
2013-03-10 00:42:00,33.6,31.3,29.62,NNW,331,22.0,37.0,91,0.00,,,0.00,0.0,meteohub,2013-03-10 06:42:00,
2013-03-10 00:47:00,33.6,31.3,29.63,NNW,330,19.0,33.0,91,0.00,,,0.00,0.0,meteohub,2013-03-10 06:47:00,
2013-03-10 00:52:00,33.4,31.3,29.63,NW,325,32.0,33.0,92,0.00,,,0.00,0.0,meteohub,2013-03-10 06:52:00,
2013-03-10 00:57:00,33.6,31.5,29.64,NNW,335,34.0,35.0,92,0.00,,,0.00,0.0,meteohub,2013-03-10 06:57:00,
2013-03-10 01:02:00,33.8,31.5,29.65,NNW,327,35.0,42.0,91,0.00,,,0.00,0.0,meteohub,2013-03-10 07:02:00,
2013-03-10 01:07:00,34.0,31.1,29.64,NNW,338,37.0,44.0,89,0.00,,,0.00,0.0,meteohub,2013-03-10 07:07:00,
2013-03-10 01:12:00,33.8,31.1,29.64,NNW,331,30.0,46.0,90,0.01,,,0.01,0.0,meteohub,2013-03-10 07:12:00,
2013-03-10 01:17:00,34.0,30.7,29.66,NNW,340,35.0,46.0,88,0.01,,,0.01,0.0,meteohub,2013-03-10 07:17:00,
2013-03-10 01:22:00,34.0,30.6,29.66,NNW,337,29.0,45.0,87,0.01,,,0.01,0.0,meteohub,2013-03-10 07:22:00,
2013-03-10 01:27:00,33.6,30.4,29.67,NNW,331,33.0,46.0,88,0.01,,,0.01,0.0,meteohub,2013-03-10 07:27:00,
2013-03-10 01:32:00,33.6,30.9,29.68,NW,325,36.0,46.0,90,0.01,,,0.01,0.0,meteohub,2013-03-10 07:32:00,
2013-03-10 01:37:00,33.6,30.9,29.68,NNW,333,35.0,46.0,90,0.01,,,0.01,0.0,meteohub,2013-03-10 07:37:00,
2013-03-10 01:42:00,33.4,31.1,29.68,NW,326,30.0,51.0,91,0.01,,,0.01,0.0,meteohub,2013-03-10 07:42:00,
2013-03-10 01:47:00,33.6,31.3,29.68,NNW,327,32.0,51.0,91,0.01,,,0.01,0.0,meteohub,2013-03-10 07:47:00,
2013-03-10 01:52:00,33.4,31.1,29.69,NW,325,32.0,43.0,91,0.01,,,0.01,0.0,meteohub,2013-03-10 07:52:00,
2013-03-10 01:57:00,33.4,30.7,29.70,NNW,327,32.0,43.0,90,0.01,,,0.01,0.0,meteohub,2013-03-10 07:57:00,
2013-03-10 03:02:00,33.3,30.9,29.70,NNW,334,37.0,-999.0,91,-99.99,,,0.01,0.0,meteohub,2013-03-10 08:02:00,
2013-03-10 03:07:00,33.3,31.1,29.71,NW,324,33.0,-999.0,92,-99.99,,,0.01,0.0,meteohub,2013-03-10 08:07:00,
2013-03-10 03:12:00,33.1,31.1,29.72,NNW,329,33.0,-999.0,92,-99.99,,,0.01,0.0,meteohub,2013-03-10 08:12:00,
2013-03-10 03:17:00,32.9,30.6,29.72,NNW,346,43.0,-999.0,91,-99.99,,,0.01,0.0,meteohub,2013-03-10 08:17:00,
2013-03-10 03:22:00,32.7,30.4,29.72,NNW,337,36.0,-999.0,91,-99.99,,,0.01,0.0,meteohub,2013-03-10 08:22:00,
2013-03-10 03:27:00,32.7,30.4,29.72,NNW,334,30.0,-999.0,91,-99.99,,,0.01,0.0,meteohub,2013-03-10 08:27:00,
2013-03-10 03:32:00,32.9,30.4,29.72,NNW,334,40.0,-999.0,90,-99.99,,,0.01,0.0,meteohub,2013-03-10 08:32:00,
2013-03-10 03:37:00,32.9,30.4,29.72,NNW,331,36.0,-999.0,90,-99.99,,,0.01,0.0,meteohub,2013-03-10 08:37:00,
2013-03-10 03:42:00,33.1,30.2,29.71,NNW,338,24.0,-999.0,89,-99.99,,,0.01,0.0,meteohub,2013-03-10 08:42:00,
2013-03-10 03:47:00,32.9,30.0,29.72,NNW,338,31.0,-999.0,89,-99.99,,,0.01,0.0,meteohub,2013-03-10 08:47:00,
2013-03-10 03:52:00,32.9,30.0,29.72,NNW,346,38.0,-999.0,89,-99.99,,,0.01,0.0,meteohub,2013-03-10 08:52:00,
2013-03-10 03:57:00,32.9,30.0,29.71,NNW,338,40.0,-999.0,89,-99.99,,,0.01,0.0,meteohub,2013-03-10 08:57:00,
2013-03-10 04:02:00,33.1,29.8,29.72,NNW,341,37.0,-999.0,88,-99.99,,,0.01,0.0,meteohub,2013-03-10 09:02:00,
2013-03-10 04:07:00,33.1,29.8,29.72,NNW,348,36.0,-999.0,88,-99.99,,,0.01,0.0,meteohub,2013-03-10 09:07:00,
2013-03-10 04:12:00,33.1,30.2,29.72,North,355,22.0,-999.0,89,-99.99,,,0.01,0.0,meteohub,2013-03-10 09:12:00,
2013-03-10 04:17:00,32.7,30.4,29.72,NNW,339,27.0,-999.0,91,-99.99,,,0.01,0.0,meteohub,2013-03-10 09:17:00,
2013-03-10 04:22:00,32.7,30.7,29.72,NNW,335,35.0,-999.0,92,-99.99,,,0.01,0.0,meteohub,2013-03-10 09:22:00,
2013-03-10 04:27:00,32.5,30.2,29.72,NNW,332,34.0,-999.0,91,-99.99,,,0.01,0.0,meteohub,2013-03-10 09:27:00,
2013-03-10 04:32:00,32.0,29.7,29.72,NNW,337,42.0,-999.0,91,-99.99,,,0.01,0.0,meteohub,2013-03-10 09:32:00,
2013-03-10 04:37:00,31.6,29.3,29.73,NNW,336,28.0,-999.0,91,-99.99,,,0.01,0.0,meteohub,2013-03-10 09:37:00,
2013-03-10 04:42:00,31.6,29.3,29.74,NNW,343,26.0,-999.0,91,-99.99,,,0.01,0.0,meteohub,2013-03-10 09:42:00,
2013-03-10 04:47:00,31.5,28.9,29.74,NNW,340,31.0,-999.0,90,-99.99,,,0.01,0.0,meteohub,2013-03-10 09:47:00,
2013-03-10 04:52:00,31.5,28.6,29.73,NNW,332,29.0,-999.0,89,-99.99,,,0.01,0.0,meteohub,2013-03-10 09:52:00,
2013-03-10 04:57:00,31.6,27.3,29.73,NW,325,34.0,-999.0,84,-99.99,,,0.01,0.0,meteohub,2013-03-10 09:57:00,
2013-03-10 05:02:00,31.6,26.4,29.73,NNW,332,31.0,-999.0,81,-99.99,,,0.01,0.0,meteohub,2013-03-10 10:02:00,
2013-03-10 05:07:00,31.8,25.7,29.72,NNW,344,34.0,-999.0,78,-99.99,,,0.01,0.0,meteohub,2013-03-10 10:07:00,
2013-03-10 05:12:00,31.6,25.5,29.73,NNW,336,36.0,-999.0,78,-99.99,,,0.01,0.0,meteohub,2013-03-10 10:12:00,
2013-03-10 05:17:00,31.5,25.3,29.74,NNW,335,22.0,-999.0,78,-99.99,,,0.01,0.0,meteohub,2013-03-10 10:17:00,
2013-03-10 05:22:00,31.3,25.2,29.74,NNW,335,16.0,-999.0,78,-99.99,,,0.01,0.0,meteohub,2013-03-10 10:22:00,
2013-03-10 05:27:00,30.9,25.2,29.75,NNW,339,24.0,-999.0,79,-99.99,,,0.01,0.0,meteohub,2013-03-10 10:27:00,
2013-03-10 05:32:00,31.1,25.0,29.76,NNW,328,23.0,-999.0,78,-99.99,,,0.01,0.0,meteohub,2013-03-10 10:32:00,
2013-03-10 05:37:00,31.1,24.8,29.77,NNW,329,20.0,-999.0,77,-99.99,,,0.01,0.0,meteohub,2013-03-10 10:37:00,
2013-03-10 05:42:00,30.9,24.6,29.77,NNW,337,26.0,-999.0,77,-99.99,,,0.01,0.0,meteohub,2013-03-10 10:42:00,
2013-03-10 05:47:00,30.7,24.6,29.77,NNW,336,24.0,-999.0,78,-99.99,,,0.01,0.0,meteohub,2013-03-10 10:47:00,
2013-03-10 05:52:00,30.9,24.3,29.77,NNW,335,22.0,-999.0,76,-99.99,,,0.01,0.0,meteohub,2013-03-10 10:52:00,
2013-03-10 05:57:00,30.6,23.9,29.78,NNW,331,19.0,-999.0,76,-99.99,,,0.01,0.0,meteohub,2013-03-10 10:57:00,
2013-03-10 06:02:00,30.6,23.5,29.78,NNW,331,21.0,-999.0,75,-99.99,,,0.01,0.0,meteohub,2013-03-10 11:02:00,
2013-03-10 06:07:00,30.4,23.2,29.79,NNW,329,19.0,-999.0,74,-99.99,,,0.01,0.0,meteohub,2013-03-10 11:07:00,
2013-03-10 06:12:00,30.2,22.6,29.80,NW,320,19.0,-999.0,73,-99.99,,,0.01,0.0,meteohub,2013-03-10 11:12:00,
2013-03-10 06:17:00,29.8,22.6,29.80,NNW,337,21.0,-999.0,74,-99.99,,,0.01,0.0,meteohub,2013-03-10 11:17:00,
2013-03-10 06:22:00,29.8,22.6,29.79,NNW,332,17.0,-999.0,74,-99.99,,,0.01,0.0,meteohub,2013-03-10 11:22:00,
2013-03-10 06:27:00,29.7,22.5,29.80,NW,322,18.0,-999.0,74,-99.99,,,0.01,0.0,meteohub,2013-03-10 11:27:00,
2013-03-10 06:32:00,29.7,22.5,29.81,NNW,327,23.0,-999.0,74,-99.99,,,0.01,0.0,meteohub,2013-03-10 11:32:00,
2013-03-10 06:37:00,29.7,22.5,29.81,NW,322,21.0,-999.0,74,-99.99,,,0.01,0.0,meteohub,2013-03-10 11:37:00,
2013-03-10 06:42:00,29.5,22.5,29.83,NW,319,22.0,-999.0,75,-99.99,,,0.01,0.0,meteohub,2013-03-10 11:42:00,
2013-03-10 06:47:00,29.5,22.5,29.83,NW,315,20.0,-999.0,75,-99.99,,,0.01,0.0,meteohub,2013-03-10 11:47:00,
2013-03-10 06:52:00,29.7,22.6,29.83,NW,319,22.0,-999.0,75,-99.99,,,0.01,0.0,meteohub,2013-03-10 11:52:00,
2013-03-10 06:57:00,29.7,22.6,29.83,NNW,332,18.0,-999.0,75,-99.99,,,0.01,0.0,meteohub,2013-03-10 11:57:00,
2013-03-10 07:02:00,29.7,22.6,29.83,NW,325,24.0,-999.0,75,-99.99,,,0.01,0.0,meteohub,2013-03-10 12:02:00,
2013-03-10 07:07:00,29.7,22.5,29.84,NNW,327,26.0,-999.0,74,-99.99,,,0.01,0.0,meteohub,2013-03-10 12:07:00,
2013-03-10 07:12:00,29.7,22.5,29.85,NW,315,22.0,-999.0,74,-99.99,,,0.01,0.0,meteohub,2013-03-10 12:12:00,
2013-03-10 07:17:00,29.8,22.3,29.83,NNW,339,20.0,-999.0,73,-99.99,,,0.01,0.0,meteohub,2013-03-10 12:17:00,
2013-03-10 07:22:00,29.5,22.3,29.84,NNW,333,18.0,-999.0,74,-99.99,,,0.01,0.0,meteohub,2013-03-10 12:22:00,
2013-03-10 07:27:00,29.5,22.3,29.84,NNW,339,18.0,-999.0,74,-99.99,,,0.01,0.0,meteohub,2013-03-10 12:27:00,
2013-03-10 07:32:00,29.5,22.3,29.85,NNW,329,21.0,-999.0,74,-99.99,,,0.01,0.0,meteohub,2013-03-10 12:32:00,
2013-03-10 07:37:00,29.3,21.7,29.86,NNW,329,18.0,-999.0,73,-99.99,,,0.01,0.0,meteohub,2013-03-10 12:37:00,
2013-03-10 07:42:00,29.1,21.9,29.87,NW,325,17.0,-999.0,74,-99.99,,,0.01,0.0,meteohub,2013-03-10 12:42:00,
2013-03-10 07:47:00,28.9,21.7,29.88,NW,325,15.0,-999.0,74,-99.99,,,0.01,0.0,meteohub,2013-03-10 12:47:00,
2013-03-10 07:52:00,28.8,21.9,29.88,NW,319,17.0,-999.0,75,-99.99,,,0.01,0.0,meteohub,2013-03-10 12:52:00,
2013-03-10 07:57:00,28.8,21.9,29.89,NNW,335,18.0,-999.0,75,-99.99,,,0.01,0.0,meteohub,2013-03-10 12:57:00,
2013-03-10 08:03:00,28.8,21.6,29.89,NNW,327,17.0,-999.0,74,-99.99,,,0.01,0.0,meteohub,2013-03-10 13:03:00,
2013-03-10 08:08:00,28.6,21.4,29.88,NW,324,21.0,-999.0,74,-99.99,,,0.01,5.0,meteohub,2013-03-10 13:08:00,
2013-03-10 08:13:00,28.8,21.6,29.89,NW,325,19.0,-999.0,74,-99.99,,,0.01,7.0,meteohub,2013-03-10 13:13:00,
2013-03-10 08:18:00,28.6,21.0,29.89,NNW,336,19.0,29.0,73,-99.99,,,0.01,9.0,meteohub,2013-03-10 13:18:00,
2013-03-10 08:23:00,28.6,21.4,29.89,NNW,330,15.0,29.0,74,-99.99,,,0.01,12.0,meteohub,2013-03-10 13:23:00,
2013-03-10 08:28:00,28.6,21.0,29.89,NW,325,19.0,28.0,73,-99.99,,,0.01,19.0,meteohub,2013-03-10 13:28:00,
2013-03-10 08:33:00,28.4,20.5,29.89,NNW,341,15.0,29.0,72,-99.99,,,0.01,19.0,meteohub,2013-03-10 13:33:00,
2013-03-10 08:38:00,28.4,20.8,29.90,NNW,331,14.0,29.0,73,-99.99,,,0.01,25.0,meteohub,2013-03-10 13:38:00,
2013-03-10 08:43:00,28.6,20.7,29.91,NNW,327,18.0,29.0,72,-99.99,,,0.01,40.0,meteohub,2013-03-10 13:43:00,
2013-03-10 08:48:00,28.4,20.5,29.91,NNW,327,29.0,29.0,72,-99.99,,,0.01,44.0,meteohub,2013-03-10 13:48:00,
2013-03-10 08:54:00,28.4,20.8,29.92,NW,320,16.0,29.0,73,-99.99,,,0.01,49.0,meteohub,2013-03-10 13:54:00,
2013-03-10 08:59:00,28.4,20.8,29.92,NNW,331,18.0,29.0,73,-99.99,,,0.01,60.0,meteohub,2013-03-10 13:59:00,
2013-03-10 09:04:00,28.6,21.0,29.92,NW,323,22.0,29.0,73,0.00,,,0.01,67.0,meteohub,2013-03-10 14:04:00,
2013-03-10 09:09:00,28.9,21.0,29.94,NW,317,25.0,26.0,72,0.00,,,0.01,69.0,meteohub,2013-03-10 14:09:00,
2013-03-10 09:14:00,29.1,21.2,29.93,NW,319,23.0,27.0,72,0.00,,,0.01,79.0,meteohub,2013-03-10 14:14:00,
2013-03-10 09:19:00,29.1,21.2,29.93,NW,325,18.0,27.0,72,0.00,,,0.01,81.0,meteohub,2013-03-10 14:19:00,
2013-03-10 09:24:00,29.3,21.0,29.93,NNW,329,25.0,27.0,71,0.00,,,0.01,109.0,meteohub,2013-03-10 14:24:00,
2013-03-10 09:29:00,29.5,21.2,29.94,NNW,327,23.0,29.0,71,0.00,,,0.01,105.0,meteohub,2013-03-10 14:29:00,
2013-03-10 09:34:00,29.7,21.0,29.94,NW,317,22.0,29.0,70,0.00,,,0.01,104.0,meteohub,2013-03-10 14:34:00,
2013-03-10 09:39:00,29.7,21.0,29.95,NW,323,21.0,29.0,70,0.00,,,0.01,137.0,meteohub,2013-03-10 14:39:00,
2013-03-10 09:44:00,30.0,21.0,29.95,NW,323,22.0,32.0,69,0.00,,,0.01,160.0,meteohub,2013-03-10 14:44:00,
2013-03-10 09:49:00,30.0,20.5,29.95,NNW,328,27.0,32.0,67,0.00,,,0.01,169.0,meteohub,2013-03-10 14:49:00,
2013-03-10 09:54:00,30.4,20.7,29.96,NNW,337,28.0,33.0,67,0.00,,,0.01,171.0,meteohub,2013-03-10 14:54:00,
2013-03-10 09:59:00,30.4,20.3,29.96,NNW,329,19.0,33.0,66,0.00,,,0.01,200.0,meteohub,2013-03-10 14:59:00,
2013-03-10 10:05:00,30.7,20.7,29.96,NNW,332,30.0,34.0,66,0.00,,,0.01,218.0,meteohub,2013-03-10 15:05:00,
2013-03-10 10:10:00,30.7,19.9,29.96,NNW,329,27.0,34.0,64,0.00,,,0.01,257.0,meteohub,2013-03-10 15:10:00,
2013-03-10 10:15:00,31.3,20.8,29.96,NNW,338,31.0,35.0,65,0.00,,,0.01,299.0,meteohub,2013-03-10 15:15:00,
2013-03-10 10:20:00,31.3,20.5,29.96,NNW,336,23.0,35.0,64,0.00,,,0.01,276.0,meteohub,2013-03-10 15:20:00,
2013-03-10 10:25:00,31.6,21.2,29.96,NNW,334,30.0,35.0,65,0.00,,,0.01,348.0,meteohub,2013-03-10 15:25:00,
2013-03-10 10:30:00,32.2,21.0,29.97,NNW,334,27.0,35.0,63,0.00,,,0.01,396.0,meteohub,2013-03-10 15:30:00,
2013-03-10 10:35:00,32.4,20.8,29.97,NNW,347,25.0,35.0,62,0.00,,,0.01,376.0,meteohub,2013-03-10 15:35:00,
2013-03-10 10:40:00,32.5,21.0,29.97,NNW,342,31.0,34.0,62,0.00,,,0.01,466.0,meteohub,2013-03-10 15:40:00,
2013-03-10 10:45:00,33.1,21.0,29.97,NNW,336,27.0,34.0,61,0.00,,,0.01,512.0,meteohub,2013-03-10 15:45:00,
2013-03-10 10:50:00,32.9,20.5,29.98,NNW,343,27.0,34.0,60,0.00,,,0.01,471.0,meteohub,2013-03-10 15:50:00,
2013-03-10 10:55:00,32.9,20.1,29.98,NNW,344,27.0,36.0,59,0.00,,,0.01,473.0,meteohub,2013-03-10 15:55:00,
2013-03-10 11:00:00,33.3,20.5,29.98,NNW,331,28.0,36.0,59,0.00,,,0.01,541.0,meteohub,2013-03-10 16:00:00,
2013-03-10 11:05:00,34.0,21.2,29.98,NNW,333,27.0,36.0,59,0.00,,,0.01,552.0,meteohub,2013-03-10 16:05:00,
2013-03-10 11:10:00,34.2,21.4,29.98,NNW,340,28.0,34.0,59,0.00,,,0.01,554.0,meteohub,2013-03-10 16:10:00,
2013-03-10 11:15:00,33.8,20.7,29.99,NNW,330,19.0,34.0,58,0.00,,,0.01,596.0,meteohub,2013-03-10 16:15:00,
2013-03-10 11:20:00,34.2,19.8,29.99,NW,321,29.0,34.0,55,0.00,,,0.01,591.0,meteohub,2013-03-10 16:20:00,
2013-03-10 11:25:00,34.3,19.8,29.99,NNW,336,28.0,33.0,55,0.00,,,0.01,568.0,meteohub,2013-03-10 16:25:00,
2013-03-10 11:30:00,34.3,20.3,30.00,NNW,338,25.0,35.0,56,0.00,,,0.01,645.0,meteohub,2013-03-10 16:30:00,
2013-03-10 11:36:00,34.9,21.2,29.99,NNW,327,27.0,35.0,57,0.00,,,0.01,705.0,meteohub,2013-03-10 16:36:00,
2013-03-10 11:41:00,35.2,20.3,30.00,NNW,340,27.0,35.0,54,0.00,,,0.01,682.0,meteohub,2013-03-10 16:41:00,
2013-03-10 11:46:00,34.9,19.9,30.00,NNW,346,32.0,37.0,54,0.00,,,0.01,701.0,meteohub,2013-03-10 16:46:00,
2013-03-10 11:51:00,34.9,19.0,30.00,NNW,335,22.0,40.0,52,0.00,,,0.01,724.0,meteohub,2013-03-10 16:51:00,
2013-03-10 11:56:00,35.2,19.8,30.00,NNW,336,27.0,40.0,53,0.00,,,0.01,749.0,meteohub,2013-03-10 16:56:00,
2013-03-10 12:01:00,35.2,20.3,30.00,North,0,13.0,40.0,54,0.00,,,0.01,782.0,meteohub,2013-03-10 17:01:00,
2013-03-10 12:06:00,36.0,20.1,30.01,NNW,332,31.0,37.0,52,0.00,,,0.01,861.0,meteohub,2013-03-10 17:06:00,
2013-03-10 12:11:00,35.2,20.3,30.00,NNW,328,30.0,36.0,54,0.00,,,0.01,482.0,meteohub,2013-03-10 17:11:00,
2013-03-10 12:16:00,35.4,20.8,30.00,NNW,344,31.0,35.0,55,0.00,,,0.01,889.0,meteohub,2013-03-10 17:16:00,
2013-03-10 12:21:00,36.1,21.0,30.01,NNW,333,28.0,38.0,54,0.00,,,0.01,928.0,meteohub,2013-03-10 17:21:00,
2013-03-10 12:26:00,35.6,21.0,30.01,NNW,338,26.0,38.0,55,0.00,,,0.01,972.0,meteohub,2013-03-10 17:26:00,
2013-03-10 12:31:00,36.1,20.3,30.01,NNW,348,32.0,40.0,52,0.00,,,0.01,972.0,meteohub,2013-03-10 17:31:00,
2013-03-10 12:37:00,36.1,20.7,30.01,NNW,336,28.0,40.0,53,0.00,,,0.01,281.0,meteohub,2013-03-10 17:37:00,
2013-03-10 12:42:00,36.1,20.7,30.01,NNW,338,23.0,37.0,53,0.00,,,0.01,926.0,meteohub,2013-03-10 17:42:00,
2013-03-10 12:47:00,36.9,21.4,30.01,NNW,337,23.0,35.0,53,0.00,,,0.01,1062.0,meteohub,2013-03-10 17:47:00,
2013-03-10 12:52:00,35.2,19.4,30.01,NW,319,29.0,35.0,52,0.00,,,0.01,253.0,meteohub,2013-03-10 17:52:00,
2013-03-10 12:57:00,36.5,21.4,30.01,North,0,24.0,34.0,54,0.00,,,0.01,441.0,meteohub,2013-03-10 17:57:00,
2013-03-10 13:02:00,36.3,21.2,30.01,NNW,339,24.0,34.0,54,0.00,,,0.01,313.0,meteohub,2013-03-10 18:02:00,
2013-03-10 13:07:00,35.8,20.8,30.01,NNW,337,30.0,34.0,54,0.00,,,0.01,408.0,meteohub,2013-03-10 18:07:00,
2013-03-10 13:12:00,35.4,20.5,30.01,NNW,335,24.0,37.0,54,0.00,,,0.01,471.0,meteohub,2013-03-10 18:12:00,
2013-03-10 13:17:00,35.1,18.7,30.01,NNW,342,34.0,37.0,51,0.00,,,0.01,360.0,meteohub,2013-03-10 18:17:00,
2013-03-10 13:22:00,36.0,21.4,30.01,NNW,342,31.0,38.0,55,0.00,,,0.01,1048.0,meteohub,2013-03-10 18:22:00,
2013-03-10 13:27:00,35.1,19.2,30.01,NW,326,33.0,38.0,52,0.00,,,0.01,318.0,meteohub,2013-03-10 18:27:00,
2013-03-10 13:32:00,36.3,19.4,30.01,NNW,327,31.0,38.0,50,0.00,,,0.01,425.0,meteohub,2013-03-10 18:32:00,
2013-03-10 13:37:00,36.3,19.4,30.01,NNW,342,28.0,36.0,50,0.00,,,0.01,1035.0,meteohub,2013-03-10 18:37:00,
2013-03-10 13:42:00,35.2,18.9,30.00,NW,323,29.0,37.0,51,0.00,,,0.01,239.0,meteohub,2013-03-10 18:42:00,
2013-03-10 13:47:00,36.1,18.3,30.00,NNW,333,25.0,38.0,48,0.00,,,0.01,306.0,meteohub,2013-03-10 18:47:00,
2013-03-10 13:52:00,36.1,19.2,30.00,NW,323,29.0,43.0,50,0.00,,,0.01,977.0,meteohub,2013-03-10 18:52:00,
2013-03-10 13:57:00,37.6,19.2,30.00,NNW,327,25.0,43.0,47,0.00,,,0.01,1034.0,meteohub,2013-03-10 18:57:00,
2013-03-10 14:02:00,36.9,19.4,30.00,NNW,339,27.0,43.0,49,0.00,,,0.01,318.0,meteohub,2013-03-10 19:02:00,
2013-03-10 14:07:00,36.1,18.9,30.00,NNW,334,23.0,39.0,49,0.00,,,0.01,1143.0,meteohub,2013-03-10 19:07:00,
2013-03-10 14:12:00,36.1,18.9,30.00,NNW,330,33.0,36.0,49,0.00,,,0.01,295.0,meteohub,2013-03-10 19:12:00,
2013-03-10 14:17:00,36.1,18.9,30.00,NNW,329,27.0,35.0,49,0.00,,,0.01,304.0,meteohub,2013-03-10 19:17:00,
2013-03-10 14:22:00,36.5,19.6,29.99,NNW,338,25.0,35.0,50,0.00,,,0.01,223.0,meteohub,2013-03-10 19:22:00,
2013-03-10 14:27:00,36.1,18.3,29.99,North,0,20.0,35.0,48,0.00,,,0.01,1049.0,meteohub,2013-03-10 19:27:00,
2013-03-10 14:32:00,37.2,19.4,29.99,NNW,329,19.0,33.0,48,0.00,,,0.01,1004.0,meteohub,2013-03-10 19:32:00,
2013-03-10 14:38:00,37.0,19.2,29.99,NNW,328,31.0,32.0,48,0.00,,,0.01,332.0,meteohub,2013-03-10 19:38:00,
2013-03-10 14:43:00,36.7,20.3,29.99,NNW,344,22.0,34.0,51,0.00,,,0.01,330.0,meteohub,2013-03-10 19:43:00,
2013-03-10 14:48:00,36.9,19.4,29.99,NNW,339,30.0,34.0,49,0.00,,,0.01,940.0,meteohub,2013-03-10 19:48:00,
2013-03-10 14:53:00,37.0,19.6,29.99,NNW,327,31.0,34.0,49,0.00,,,0.01,949.0,meteohub,2013-03-10 19:53:00,
2013-03-10 14:58:00,37.6,20.1,29.98,NNW,329,24.0,35.0,49,0.00,,,0.01,202.0,meteohub,2013-03-10 19:58:00,
2013-03-10 15:03:00,37.2,18.9,29.98,NNW,337,27.0,35.0,47,0.00,,,0.01,322.0,meteohub,2013-03-10 20:03:00,
2013-03-10 15:08:00,36.5,18.7,29.98,NNW,335,31.0,35.0,48,0.00,,,0.01,302.0,meteohub,2013-03-10 20:08:00,
2013-03-10 15:13:00,37.2,19.4,29.97,NW,323,25.0,37.0,48,0.00,,,0.01,446.0,meteohub,2013-03-10 20:13:00,
2013-03-10 15:18:00,36.5,18.1,29.97,NNW,330,28.0,37.0,47,0.00,,,0.01,257.0,meteohub,2013-03-10 20:18:00,
2013-03-10 15:23:00,36.3,17.1,29.97,NW,315,30.0,37.0,45,0.00,,,0.01,207.0,meteohub,2013-03-10 20:23:00,
2013-03-10 15:28:00,37.8,19.4,29.97,NW,311,26.0,36.0,47,0.00,,,0.01,904.0,meteohub,2013-03-10 20:28:00,
2013-03-10 15:33:00,38.1,18.1,29.97,NW,324,28.0,36.0,44,0.00,,,0.01,383.0,meteohub,2013-03-10 20:33:00,
2013-03-10 15:38:00,38.5,19.0,29.97,NW,321,32.0,35.0,45,0.00,,,0.01,963.0,meteohub,2013-03-10 20:38:00,
2013-03-10 15:43:00,38.7,18.7,29.97,North,355,24.0,35.0,44,0.00,,,0.01,932.0,meteohub,2013-03-10 20:43:00,
2013-03-10 15:49:00,37.4,17.4,29.98,NW,325,25.0,35.0,44,0.00,,,0.01,237.0,meteohub,2013-03-10 20:49:00,
2013-03-10 15:54:00,37.2,19.8,29.99,NNW,334,31.0,40.0,49,0.00,,,0.01,341.0,meteohub,2013-03-10 20:54:00,
2013-03-10 15:59:00,37.6,19.2,29.98,NW,321,19.0,40.0,47,0.00,,,0.01,805.0,meteohub,2013-03-10 20:59:00,
2013-03-10 16:04:00,37.9,17.4,29.98,NW,314,24.0,34.0,43,0.00,,,0.01,745.0,meteohub,2013-03-10 21:04:00,
2013-03-10 16:09:00,38.5,19.6,29.98,NNW,327,28.0,37.0,46,0.00,,,0.01,724.0,meteohub,2013-03-10 21:09:00,
2013-03-10 16:14:00,38.1,18.1,29.98,NNW,348,25.0,37.0,44,0.00,,,0.01,693.0,meteohub,2013-03-10 21:14:00,
2013-03-10 16:19:00,37.8,17.8,29.98,NNW,329,30.0,37.0,44,0.00,,,0.01,717.0,meteohub,2013-03-10 21:19:00,
2013-03-10 16:24:00,36.7,17.4,29.99,NNW,333,20.0,37.0,45,0.00,,,0.01,163.0,meteohub,2013-03-10 21:24:00,
2013-03-10 16:29:00,36.0,17.6,29.99,NNW,330,30.0,34.0,47,0.00,,,0.01,188.0,meteohub,2013-03-10 21:29:00,
2013-03-10 16:34:00,36.7,17.4,29.99,NNW,339,33.0,37.0,45,0.00,,,0.01,155.0,meteohub,2013-03-10 21:34:00,
2013-03-10 16:39:00,37.0,18.1,29.99,NNW,331,27.0,37.0,46,0.00,,,0.01,661.0,meteohub,2013-03-10 21:39:00,
2013-03-10 16:44:00,37.2,17.2,29.99,NNW,333,34.0,37.0,44,0.00,,,0.01,608.0,meteohub,2013-03-10 21:44:00,
2013-03-10 16:49:00,37.6,18.1,29.99,NW,321,30.0,34.0,45,0.00,,,0.01,587.0,meteohub,2013-03-10 21:49:00,
2013-03-10 16:54:00,37.6,18.1,29.99,NNW,340,26.0,39.0,45,0.00,,,0.01,580.0,meteohub,2013-03-10 21:54:00,
2013-03-10 16:59:00,37.6,17.6,29.99,NNW,332,30.0,39.0,44,0.00,,,0.01,559.0,meteohub,2013-03-10 21:59:00,
2013-03-10 17:04:00,37.9,18.0,29.99,NNE,17,29.0,39.0,44,0.00,,,0.01,541.0,meteohub,2013-03-10 22:04:00,
2013-03-10 17:09:00,37.8,17.2,29.99,North,351,30.0,37.0,43,0.00,,,0.01,524.0,meteohub,2013-03-10 22:09:00,
2013-03-10 17:15:00,37.2,16.7,29.99,NNW,329,28.0,37.0,43,0.00,,,0.01,503.0,meteohub,2013-03-10 22:15:00,
2013-03-10 17:20:00,37.9,16.9,29.99,North,355,23.0,35.0,42,0.00,,,0.01,496.0,meteohub,2013-03-10 22:20:00,
2013-03-10 17:25:00,37.8,17.2,29.99,NNW,338,32.0,35.0,43,0.00,,,0.01,478.0,meteohub,2013-03-10 22:25:00,
2013-03-10 17:30:00,37.4,16.9,29.99,NW,317,25.0,36.0,43,0.00,,,0.01,461.0,meteohub,2013-03-10 22:30:00,
2013-03-10 17:35:00,37.9,17.4,29.99,NNW,332,27.0,36.0,43,0.00,,,0.01,443.0,meteohub,2013-03-10 22:35:00,
2013-03-10 17:40:00,37.8,17.2,29.99,NNW,341,21.0,33.0,43,0.00,,,0.01,431.0,meteohub,2013-03-10 22:40:00,
2013-03-10 17:45:00,37.8,17.2,29.99,NNW,342,18.0,33.0,43,0.00,,,0.01,408.0,meteohub,2013-03-10 22:45:00,
2013-03-10 17:50:00,37.9,17.4,29.99,NNW,346,24.0,32.0,43,0.00,,,0.01,392.0,meteohub,2013-03-10 22:50:00,
2013-03-10 17:55:00,37.6,16.5,29.99,NNW,340,25.0,32.0,42,0.00,,,0.01,378.0,meteohub,2013-03-10 22:55:00,
2013-03-10 18:00:00,37.8,17.2,30.00,NNW,342,25.0,29.0,43,0.00,,,0.01,357.0,meteohub,2013-03-10 23:00:00,
2013-03-10 18:05:00,37.2,16.7,29.99,NNW,342,26.0,31.0,43,0.00,,,0.01,339.0,meteohub,2013-03-10 23:05:00,
2013-03-10 18:10:00,37.4,16.9,30.00,NNW,342,27.0,31.0,43,0.00,,,0.01,322.0,meteohub,2013-03-10 23:10:00,
2013-03-10 18:15:00,37.6,17.1,30.00,NNW,342,13.0,31.0,43,0.00,,,0.01,309.0,meteohub,2013-03-10 23:15:00,
2013-03-10 18:20:00,37.4,17.4,30.00,North,5,18.0,32.0,44,0.00,,,0.01,288.0,meteohub,2013-03-10 23:20:00,
2013-03-10 18:25:00,37.2,16.7,30.00,NNW,333,20.0,32.0,43,0.00,,,0.01,271.0,meteohub,2013-03-10 23:25:00,
2013-03-10 18:31:00,37.2,16.7,30.00,NNW,334,17.0,32.0,43,0.00,,,0.01,251.0,meteohub,2013-03-10 23:31:00,
2013-03-10 18:36:00,37.4,16.9,30.01,North,355,13.0,28.0,43,0.00,,,0.01,225.0,meteohub,2013-03-10 23:36:00,
2013-03-10 18:41:00,37.2,16.7,30.01,NNW,341,18.0,28.0,43,0.00,,,0.01,204.0,meteohub,2013-03-10 23:41:00,
2013-03-10 18:46:00,37.0,17.1,30.01,North,0,14.0,26.0,44,0.00,,,0.01,181.0,meteohub,2013-03-10 23:46:00,
2013-03-10 18:51:00,36.9,17.1,30.01,NNW,334,22.0,27.0,44,0.00,,,0.01,160.0,meteohub,2013-03-10 23:51:00,
2013-03-10 18:56:00,36.7,16.9,30.01,NNW,348,24.0,27.0,44,0.00,,,0.01,137.0,meteohub,2013-03-10 23:56:00,
2013-03-10 19:01:00,36.5,15.1,30.01,NNW,340,20.0,27.0,41,0.00,,,0.01,114.0,meteohub,2013-03-11 00:01:00,
2013-03-10 19:07:00,36.1,14.7,30.02,North,9,18.0,27.0,41,0.00,,,0.01,91.0,meteohub,2013-03-11 00:07:00,
2013-03-10 19:12:00,36.0,14.0,30.02,NNW,340,26.0,27.0,40,0.00,,,0.01,77.0,meteohub,2013-03-11 00:12:00,
2013-03-10 19:17:00,35.6,14.2,30.02,NNW,337,21.0,26.0,41,0.00,,,0.01,60.0,meteohub,2013-03-11 00:17:00,
2013-03-10 19:22:00,35.4,14.5,30.02,North,355,13.0,26.0,42,0.00,,,0.01,44.0,meteohub,2013-03-11 00:22:00,
2013-03-10 19:27:00,35.2,15.4,30.03,North,355,15.0,26.0,44,0.00,,,0.01,32.0,meteohub,2013-03-11 00:27:00,
2013-03-10 19:32:00,34.9,15.6,30.03,North,5,13.0,24.0,45,0.00,,,0.01,21.0,meteohub,2013-03-11 00:32:00,
2013-03-10 19:37:00,34.5,15.4,30.03,NNW,340,13.0,21.0,45,0.00,,,0.01,14.0,meteohub,2013-03-11 00:37:00,
2013-03-10 19:42:00,34.2,15.1,30.04,NNW,347,15.0,21.0,45,0.00,,,0.01,11.0,meteohub,2013-03-11 00:42:00,
2013-03-10 19:47:00,34.0,14.9,30.04,North,350,13.0,20.0,45,0.00,,,0.01,5.0,meteohub,2013-03-11 00:47:00,
2013-03-10 19:52:00,33.4,14.9,30.04,North,350,12.0,19.0,46,0.00,,,0.01,0.0,meteohub,2013-03-11 00:52:00,
2013-03-10 19:57:00,33.1,14.5,30.04,North,0,9.0,19.0,46,0.00,,,0.01,0.0,meteohub,2013-03-11 00:57:00,
2013-03-10 20:02:00,32.7,14.7,30.04,North,355,9.0,19.0,47,0.00,,,0.01,0.0,meteohub,2013-03-11 01:02:00,
2013-03-10 20:07:00,32.4,15.3,30.04,NNW,345,9.0,14.0,49,0.00,,,0.01,0.0,meteohub,2013-03-11 01:07:00,
2013-03-10 20:13:00,32.2,15.1,30.04,NNW,346,9.0,13.0,49,0.00,,,0.01,0.0,meteohub,2013-03-11 01:13:00,
2013-03-10 20:18:00,32.2,15.1,30.05,NNW,344,10.0,15.0,49,0.00,,,0.01,0.0,meteohub,2013-03-11 01:18:00,
2013-03-10 20:23:00,31.6,14.7,30.05,NNW,347,8.0,15.0,49,0.00,,,0.01,0.0,meteohub,2013-03-11 01:23:00,
2013-03-10 20:28:00,31.1,14.5,30.05,North,355,8.0,15.0,50,0.00,,,0.01,0.0,meteohub,2013-03-11 01:28:00,
2013-03-10 20:33:00,30.6,14.5,30.05,North,355,7.0,12.0,51,0.00,,,0.01,0.0,meteohub,2013-03-11 01:33:00,
2013-03-10 20:38:00,30.4,14.9,30.05,North,350,9.0,10.0,52,0.00,,,0.01,0.0,meteohub,2013-03-11 01:38:00,
2013-03-10 20:43:00,29.8,14.7,30.06,NNW,342,9.0,10.0,53,0.00,,,0.01,0.0,meteohub,2013-03-11 01:43:00,
2013-03-10 20:48:00,29.7,15.1,30.06,NNW,332,9.0,10.0,54,0.00,,,0.01,0.0,meteohub,2013-03-11 01:48:00,
2013-03-10 20:53:00,29.7,15.1,30.06,NNW,333,10.0,11.0,54,0.00,,,0.01,0.0,meteohub,2013-03-11 01:53:00,
2013-03-10 20:58:00,29.7,15.1,30.06,NNW,333,8.0,11.0,54,0.00,,,0.01,0.0,meteohub,2013-03-11 01:58:00,
2013-03-10 21:03:00,29.3,15.1,30.07,NNW,331,8.0,11.0,55,0.00,,,0.01,0.0,meteohub,2013-03-11 02:03:00,
2013-03-10 21:09:00,28.9,15.3,30.08,NW,319,9.0,11.0,56,0.00,,,0.01,0.0,meteohub,2013-03-11 02:09:00,
2013-03-10 21:14:00,29.1,15.8,30.08,NW,315,9.0,11.0,57,0.00,,,0.01,0.0,meteohub,2013-03-11 02:14:00,
2013-03-10 21:19:00,29.3,15.6,30.08,NW,315,9.0,12.0,56,0.00,,,0.01,0.0,meteohub,2013-03-11 02:19:00,
2013-03-10 21:24:00,28.9,15.6,30.08,NW,312,8.0,12.0,57,0.00,,,0.01,0.0,meteohub,2013-03-11 02:24:00,
2013-03-10 21:29:00,28.6,15.3,30.09,NW,311,8.0,12.0,57,0.00,,,0.01,0.0,meteohub,2013-03-11 02:29:00,
2013-03-10 21:34:00,28.0,15.3,30.09,NW,311,7.0,11.0,58,0.00,,,0.01,0.0,meteohub,2013-03-11 02:34:00,
2013-03-10 21:39:00,27.3,14.9,30.09,NW,311,7.0,10.0,59,0.00,,,0.01,0.0,meteohub,2013-03-11 02:39:00,
2013-03-10 21:44:00,26.6,14.5,30.09,NW,310,7.0,9.0,60,0.00,,,0.01,0.0,meteohub,2013-03-11 02:44:00,
2013-03-10 21:49:00,26.1,14.5,30.09,NW,310,7.0,8.0,61,0.00,,,0.01,0.0,meteohub,2013-03-11 02:49:00,
2013-03-10 21:54:00,25.7,14.5,30.10,NW,310,6.0,8.0,62,0.00,,,0.01,0.0,meteohub,2013-03-11 02:54:00,
2013-03-10 21:59:00,25.2,14.4,30.10,NW,309,7.0,8.0,63,0.00,,,0.01,0.0,meteohub,2013-03-11 02:59:00,
2013-03-10 22:04:00,25.2,14.4,30.10,NW,307,5.0,8.0,63,0.00,,,0.01,0.0,meteohub,2013-03-11 03:04:00,
2013-03-10 22:09:00,24.6,13.8,30.10,NW,307,6.0,8.0,63,0.00,,,0.01,0.0,meteohub,2013-03-11 03:09:00,
2013-03-10 22:14:00,24.3,13.8,30.10,NW,306,6.0,8.0,64,0.00,,,0.01,0.0,meteohub,2013-03-11 03:14:00,
2013-03-10 22:19:00,23.9,13.8,30.10,NW,306,6.0,7.0,65,0.00,,,0.01,0.0,meteohub,2013-03-11 03:19:00,
2013-03-10 22:24:00,23.5,13.5,30.10,NW,305,7.0,7.0,65,0.00,,,0.01,0.0,meteohub,2013-03-11 03:24:00,
2013-03-10 22:29:00,23.7,14.0,30.10,NW,304,7.0,7.0,66,0.00,,,0.01,0.0,meteohub,2013-03-11 03:29:00,
2013-03-10 22:34:00,23.9,14.5,30.10,NW,304,6.0,8.0,67,0.00,,,0.01,0.0,meteohub,2013-03-11 03:34:00,
2013-03-10 22:39:00,23.7,14.0,30.10,NW,304,6.0,8.0,66,0.00,,,0.01,0.0,meteohub,2013-03-11 03:39:00,
2013-03-10 22:44:00,23.2,14.2,30.10,NW,304,5.0,8.0,68,0.00,,,0.01,0.0,meteohub,2013-03-11 03:44:00,
2013-03-10 22:49:00,22.8,13.8,30.10,NW,304,5.0,7.0,68,0.00,,,0.01,0.0,meteohub,2013-03-11 03:49:00,
2013-03-10 22:54:00,22.5,13.1,30.10,NW,304,7.0,7.0,67,0.00,,,0.01,0.0,meteohub,2013-03-11 03:54:00,
2013-03-10 22:59:00,21.6,12.6,30.10,NW,304,8.0,8.0,68,0.00,,,0.01,0.0,meteohub,2013-03-11 03:59:00,
2013-03-10 23:00:00,21.6,12.6,30.10,NW,304,7.0,7.0,68,0.00,,,0.01,0.0,meteohub,2013-03-11 04:00:00,
2013-03-10 23:02:00,21.4,12.4,30.10,WNW,298,8.0,8.0,68,0.00,,,0.01,0.0,meteohub,2013-03-11 04:02:00,
2013-03-10 23:07:00,21.4,13.1,30.10,WNW,294,8.0,8.0,70,0.00,,,0.01,0.0,meteohub,2013-03-11 04:07:00,
2013-03-10 23:12:00,21.9,14.5,30.10,WNW,292,7.0,8.0,73,0.00,,,0.01,0.0,meteohub,2013-03-11 04:12:00,
2013-03-10 23:17:00,21.7,13.8,30.11,West,281,8.0,8.0,71,0.00,,,0.01,0.0,meteohub,2013-03-11 04:17:00,
2013-03-10 23:22:00,21.0,13.5,30.10,West,280,9.0,9.0,72,0.00,,,0.01,0.0,meteohub,2013-03-11 04:22:00,
2013-03-10 23:27:00,20.7,13.5,30.10,West,280,9.0,10.0,73,0.00,,,0.01,0.0,meteohub,2013-03-11 04:27:00,
2013-03-10 23:32:00,20.3,13.1,30.10,West,275,9.0,10.0,73,0.00,,,0.01,0.0,meteohub,2013-03-11 04:32:00,
2013-03-10 23:37:00,20.5,13.5,30.10,West,275,9.0,11.0,74,0.00,,,0.01,0.0,meteohub,2013-03-11 04:37:00,
2013-03-10 23:42:00,20.5,13.5,30.10,West,275,8.0,11.0,74,0.00,,,0.01,0.0,meteohub,2013-03-11 04:42:00,
2013-03-10 23:47:00,20.5,13.5,30.10,West,275,9.0,11.0,74,0.00,,,0.01,0.0,meteohub,2013-03-11 04:47:00,
2013-03-10 23:52:00,20.5,13.3,30.11,West,275,10.0,10.0,73,0.00,,,0.01,0.0,meteohub,2013-03-11 04:52:00,
2013-03-10 23:57:00,20.5,13.8,30.11,West,275,9.0,10.0,75,0.00,,,0.01,0.0,meteohub,2013-03-11 04:57:00,